Time;durP1;ratioP1;P1;durP2;ratioP2;P2;SDS_P1;SDS_P2;PMS_P1;PMS_P2;Temp;Humidity;BMP_temperature;BMP_pressure;BME280_temperature;BME280_humidity;BME280_pressure;Samples;Min_cycle;Max_cycle;Signal;HPM_P1;HPM_P2
2022/03/01 00:01:36;;;;;;;13.77;10.18;;;;;;;18.10;48.87;100269.66;5090943;28;20026;-89
2022/03/01 00:04:02;;;;;;;13.60;10.43;;;;;;;18.10;48.78;100272.31;5098665;28;20051;-92
2022/03/01 00:06:28;;;;;;;13.32;10.23;;;;;;;18.10;48.83;100274.94;5095467;28;20117;-91
2022/03/01 00:08:54;;;;;;;13.63;10.35;;;;;;;18.10;48.59;100269.66;5095575;28;20453;-91
2022/03/01 00:11:21;;;;;;;12.82;9.55;;;;;;;18.10;48.70;100272.31;5100172;28;20031;-90
2022/03/01 00:13:47;;;;;;;12.73;9.18;;;;;;;18.09;48.70;100270.59;5096384;28;20539;-91
2022/03/01 00:16:12;;;;;;;12.50;9.30;;;;;;;18.09;48.70;100273.22;5097485;28;20021;-90
2022/03/01 00:18:38;;;;;;;10.35;8.70;;;;;;;18.09;48.69;100262.66;5096260;28;20043;-92
2022/03/01 00:21:04;;;;;;;12.30;9.10;;;;;;;18.09;48.72;100265.31;5095944;28;20054;-90
2022/03/01 00:23:32;;;;;;;15.60;10.00;;;;;;;18.08;48.70;100260.94;5082752;28;20028;-92
2022/03/01 00:26:02;;;;;;;12.63;9.38;;;;;;;18.08;48.78;100263.59;5062644;28;20370;-91
2022/03/01 00:28:28;;;;;;;11.75;8.50;;;;;;;18.09;48.51;100262.66;5071231;28;20048;-92
2022/03/01 00:30:55;;;;;;;11.25;8.20;;;;;;;18.08;48.70;100264.47;5087277;28;20036;-92
2022/03/01 00:33:23;;;;;;;11.05;8.43;;;;;;;18.08;48.67;100259.19;5090206;28;20028;-91
2022/03/01 00:35:52;;;;;;;10.93;8.40;;;;;;;18.08;48.60;100260.94;5088394;28;20020;-90
2022/03/01 00:38:21;;;;;;;10.60;8.18;;;;;;;18.07;48.64;100261.88;5087114;28;20057;-91
2022/03/01 00:40:46;;;;;;;11.30;8.35;;;;;;;18.07;48.36;100253.94;5083112;28;20126;-90
2022/03/01 00:43:12;;;;;;;12.23;7.78;;;;;;;18.07;48.61;100259.22;5084860;28;20055;-89
2022/03/01 00:45:38;;;;;;;11.13;7.57;;;;;;;18.07;48.55;100261.88;5085586;28;20035;-90
2022/03/01 00:48:03;;;;;;;11.35;8.23;;;;;;;18.06;48.55;100257.50;5089064;28;20014;-90
2022/03/01 00:50:29;;;;;;;11.65;7.97;;;;;;;18.06;48.39;100252.22;5100733;28;20083;-91
2022/03/01 00:52:55;;;;;;;11.98;8.15;;;;;;;18.06;48.46;100246.94;5088272;28;20024;-91
2022/03/01 00:55:21;;;;;;;10.50;7.72;;;;;;;18.06;48.33;100246.94;5084785;28;20081;-91
2022/03/01 00:57:52;;;;;;;12.63;7.55;;;;;;;18.06;48.34;100254.88;5085224;28;20361;-91
2022/03/01 01:00:18;;;;;;;9.55;7.55;;;;;;;18.06;48.58;100257.50;5089675;28;20043;-91
2022/03/01 01:02:48;;;;;;;9.77;6.97;;;;;;;18.06;48.49;100262.78;5089193;28;20391;-92
2022/03/01 01:05:22;;;;;;;10.50;6.82;;;;;;;18.05;48.73;100266.28;5090052;28;20024;-91
2022/03/01 01:08:19;;;;;;;11.05;7.88;;;;;;;18.04;48.53;100261.94;5109245;28;20058;-91
2022/03/01 01:10:45;;;;;;;10.43;7.05;;;;;;;18.02;48.35;100261.13;5089663;28;20068;-90
2022/03/01 01:13:13;;;;;;;10.13;6.82;;;;;;;18.02;48.43;100261.13;5087170;28;20056;-91
2022/03/01 01:15:38;;;;;;;10.30;7.43;;;;;;;18.02;48.41;100261.13;5082875;28;20058;-88
2022/03/01 03:07:26;;;;;;;5.72;3.78;;;;;;;17.92;47.78;100226.28;5094487;28;20160;-91
2022/03/01 03:09:52;;;;;;;6.70;4.30;;;;;;;17.92;47.87;100223.63;5079572;28;20064;-90
2022/03/01 03:12:58;;;;;;;7.78;4.50;;;;;;;17.93;48.09;100225.34;5078557;28;20028;-90
2022/03/01 03:16:10;;;;;;;6.45;4.30;;;;;;;17.91;48.02;100222.75;5078454;28;20031;-90
2022/03/01 03:18:37;;;;;;;6.80;4.40;;;;;;;17.90;47.87;100215.78;5082324;28;20020;-91
2022/03/01 03:21:04;;;;;;;6.15;3.85;;;;;;;17.90;47.99;100215.78;5079778;28;20020;-91
2022/03/01 03:23:30;;;;;;;6.50;4.20;;;;;;;17.87;47.95;100215.88;5080243;28;20028;-90
2022/03/01 03:26:14;;;;;;;6.93;4.00;;;;;;;17.89;48.07;100213.19;5080290;28;20031;-90
2022/03/01 03:28:41;;;;;;;7.47;4.20;;;;;;;17.88;47.84;100217.63;5078394;28;20055;-90
2022/03/01 03:34:28;;;;;;;6.32;3.80;;;;;;;17.89;47.76;100216.69;5101503;28;20039;-91
2022/03/01 03:36:53;;;;;;;5.20;3.65;;;;;;;17.87;47.75;100215.88;5081054;28;20103;-91
2022/03/01 03:39:19;;;;;;;7.13;4.45;;;;;;;17.88;47.83;100212.34;5101751;28;20056;-91
2022/03/01 03:42:35;;;;;;;6.32;4.05;;;;;;;17.90;48.00;100221.06;5085444;28;20035;-91
2022/03/01 03:45:28;;;;;;;6.35;4.40;;;;;;;17.85;47.86;100212.44;5082455;28;20381;-90
2022/03/01 03:47:54;;;;;;;5.70;3.85;;;;;;;17.87;47.83;100215.03;5078032;28;20032;-89
2022/03/01 03:50:32;;;;;;;7.50;4.15;;;;;;;17.88;47.70;100207.06;5078045;28;20028;-89
2022/03/01 03:53:25;;;;;;;7.18;4.18;;;;;;;17.87;48.04;100197.38;5095640;28;20043;-91
2022/03/01 03:55:51;;;;;;;6.00;3.92;;;;;;;17.88;47.87;100195.63;5087555;28;20055;-90
2022/03/01 03:58:22;;;;;;;5.32;3.83;;;;;;;17.86;47.84;100203.59;5078079;28;20031;-91
2022/03/01 04:00:48;;;;;;;5.78;3.78;;;;;;;17.85;47.53;100197.47;5077775;28;20426;-90
2022/03/01 04:06:36;;;;;;;5.75;3.83;;;;;;;17.83;47.67;100209.84;5099519;28;20043;-90
2022/03/01 04:09:27;;;;;;;7.78;4.15;;;;;;;17.83;47.99;100219.56;5076532;28;20064;-90
2022/03/01 04:12:15;;;;;;;6.70;3.83;;;;;;;17.83;48.00;100219.56;5078351;28;20068;-91
2022/03/01 04:14:40;;;;;;;5.70;3.33;;;;;;;17.81;47.74;100221.38;5080191;28;20339;-91
2022/03/01 04:17:31;;;;;;;5.82;3.80;;;;;;;17.81;47.70;100213.44;5078373;28;20024;-90
2022/03/01 04:20:21;;;;;;;5.85;3.33;;;;;;;17.79;47.87;100215.28;5078825;28;20047;-89
2022/03/01 04:23:30;;;;;;;6.72;4.07;;;;;;;17.77;47.61;100217.13;5077493;28;20047;-89
2022/03/01 04:26:39;;;;;;;5.97;3.70;;;;;;;17.79;47.75;100215.28;5077446;28;20021;-89
2022/03/01 04:29:17;;;;;;;6.00;3.47;;;;;;;17.77;47.64;100206.56;5083136;28;20036;-89
2022/03/01 04:31:55;;;;;;;6.05;3.60;;;;;;;17.79;47.66;100210.00;5079522;28;20342;-90
2022/03/01 04:35:13;;;;;;;6.75;3.80;;;;;;;17.78;47.74;100203.00;5077534;28;20438;-91
2022/03/01 04:37:39;;;;;;;;;;;;;;;17.80;47.58;100203.81;5079311;28;20028;-92
2022/03/01 04:40:06;;;;;;;4.93;3.53;;;;;;;17.78;47.66;100203.84;5078210;28;20274;-92
2022/03/01 04:42:38;;;;;;;5.95;3.60;;;;;;;17.77;47.73;100210.06;5078460;28;20079;-90
2022/03/01 04:45:20;;;;;;;6.35;3.85;;;;;;;17.75;47.60;100206.63;5078994;28;20020;-91
2022/03/01 04:51:07;;;;;;;6.18;4.18;;;;;;;17.76;47.26;100212.75;5080405;28;20115;-91
2022/03/01 04:53:52;;;;;;;6.18;3.33;;;;;;;17.76;47.54;100210.09;5078403;28;20040;-90
2022/03/01 04:56:18;;;;;;;5.20;3.30;;;;;;;17.75;47.56;100211.03;5079184;28;20097;-91
2022/03/01 04:58:44;;;;;;;5.57;3.50;;;;;;;17.74;47.64;100214.59;5079291;28;20028;-91
2022/03/01 05:04:32;;;;;;;5.85;3.40;;;;;;;17.71;47.59;100212.91;5079519;28;20108;-91
2022/03/01 05:07:31;;;;;;;5.55;3.17;;;;;;;17.71;47.72;100216.44;5080015;28;20064;-91
2022/03/01 05:10:47;;;;;;;5.78;3.28;;;;;;;17.70;47.68;100214.72;5077862;28;20048;-91
2022/03/01 05:13:46;;;;;;;5.35;3.33;;;;;;;17.69;47.40;100212.13;5078683;28;20028;-90
2022/03/01 05:16:46;;;;;;;5.47;3.25;;;;;;;17.69;47.67;100220.88;5078839;28;20028;-92
2022/03/01 05:19:13;;;;;;;4.97;3.10;;;;;;;17.66;47.65;100215.72;5077477;28;20446;-90
2022/03/01 05:21:39;;;;;;;6.30;3.30;;;;;;;17.66;47.50;100221.00;5079620;28;20070;-91
2022/03/01 05:24:27;;;;;;;5.30;3.25;;;;;;;17.66;47.61;100212.22;5078158;28;20409;-90
2022/03/01 05:26:52;;;;;;;5.25;3.00;;;;;;;17.65;47.43;100210.50;5076864;28;20033;-90
2022/03/01 05:29:24;;;;;;;5.80;3.65;;;;;;;17.66;47.48;100207.81;5076897;28;20474;-90
2022/03/01 05:32:27;;;;;;;4.95;2.95;;;;;;;17.68;47.55;100215.69;5076870;28;20021;-89
2022/03/01 05:34:53;;;;;;;4.60;2.78;;;;;;;17.65;47.63;100211.38;5076343;28;20016;-89
2022/03/01 05:37:31;;;;;;;4.95;3.10;;;;;;;17.65;47.58;100211.38;5075877;28;20024;-89
2022/03/01 05:43:28;;;;;;;5.25;3.00;;;;;;;17.62;47.57;100211.47;5080066;28;20059;-90
2022/03/01 05:45:53;;;;;;;5.78;3.40;;;;;;;17.61;47.34;100212.38;5076965;28;20373;-91
2022/03/01 05:48:26;;;;;;;5.05;3.00;;;;;;;17.59;47.61;100206.31;5077250;28;20028;-89
2022/03/01 05:51:48;;;;;;;5.03;2.88;;;;;;;17.58;47.72;100215.97;5079007;28;20081;-90
2022/03/01 05:54:13;;;;;;;5.93;3.10;;;;;;;17.60;47.58;100218.56;5078172;28;20021;-91
2022/03/01 05:57:04;;;;;;;5.50;3.30;;;;;;;17.57;47.51;100221.31;5077637;28;20035;-90
2022/03/01 05:59:29;;;;;;;5.55;3.33;;;;;;;17.57;47.30;100218.66;5082682;28;20031;-90
2022/03/01 06:02:01;;;;;;;5.05;3.00;;;;;;;17.57;47.80;100229.22;5080821;28;20111;-90
2022/03/01 06:04:27;;;;;;;5.65;2.97;;;;;;;17.56;47.66;100228.38;5082054;28;20505;-90
2022/03/01 06:07:14;;;;;;;5.38;2.92;;;;;;;17.56;47.74;100227.50;5080515;28;20055;-91
2022/03/01 06:09:40;;;;;;;5.10;2.90;;;;;;;17.54;47.55;100229.34;5080757;28;20052;-91
2022/03/01 06:12:24;;;;;;;4.63;2.92;;;;;;;17.53;47.62;100220.56;5080121;28;20047;-90
2022/03/01 06:15:14;;;;;;;4.47;2.63;;;;;;;17.53;47.58;100222.34;5079296;28;20032;-90
2022/03/01 06:17:40;;;;;;;4.82;2.92;;;;;;;17.51;47.60;100221.53;5079303;28;20058;-90
2022/03/01 06:26:55;;;;;;;5.00;3.00;;;;;;;17.52;47.33;100225.88;5076731;28;20059;-90
2022/03/01 06:29:43;;;;;;;6.20;2.80;;;;;;;17.50;47.49;100227.72;5075382;28;20032;-89
2022/03/01 06:32:18;;;;;;;5.88;3.13;;;;;;;17.47;47.51;100228.69;5075503;28;20419;-90
2022/03/01 06:34:43;;;;;;;4.90;2.85;;;;;;;17.48;47.37;100233.03;5075061;28;20028;-90
2022/03/01 06:37:18;;;;;;;4.20;2.58;;;;;;;17.49;47.43;100239.19;5079307;28;20059;-90
2022/03/01 06:39:45;;;;;;;4.75;2.85;;;;;;;17.48;47.43;100240.13;5075707;28;20031;-90
2022/03/01 06:42:11;;;;;;;5.32;2.75;;;;;;;17.45;47.65;100241.91;5078085;28;20028;-90
2022/03/01 06:44:38;;;;;;;4.63;2.70;;;;;;;17.46;47.41;100245.44;5075296;28;20028;-90
2022/03/01 06:47:47;;;;;;;5.45;3.15;;;;;;;17.48;47.49;100250.66;5074884;28;20070;-89
2022/03/01 06:50:19;;;;;;;4.80;2.85;;;;;;;17.47;47.32;100248.94;5074951;28;20036;-91
2022/03/01 06:52:59;;;;;;;5.75;3.00;;;;;;;17.45;47.27;100247.19;5075699;28;20028;-90
2022/03/01 06:55:25;;;;;;;4.60;2.63;;;;;;;17.45;47.21;100252.47;5076298;28;20036;-90
2022/03/01 06:57:53;;;;;;;4.43;2.83;;;;;;;17.43;47.38;100249.03;5075528;28;20040;-90
2022/03/01 07:00:19;;;;;;;4.45;2.78;;;;;;;17.43;47.35;100258.72;5075849;28;20040;-90
2022/03/01 07:02:44;;;;;;;5.10;2.78;;;;;;;17.41;47.43;100258.78;5076831;28;20028;-89
2022/03/01 07:05:13;;;;;;;5.07;2.95;;;;;;;17.43;47.27;100254.31;5076468;28;20033;-91
2022/03/01 07:07:38;;;;;;;5.38;2.63;;;;;;;17.42;47.26;100263.16;5076474;28;20094;-90
2022/03/01 07:10:06;;;;;;;5.88;3.22;;;;;;;17.41;47.46;100253.50;5075660;28;20432;-90
2022/03/01 07:12:31;;;;;;;5.13;2.85;;;;;;;17.41;47.46;100258.78;5085382;28;20017;-91
2022/03/01 07:14:57;;;;;;;4.97;2.35;;;;;;;17.39;47.34;100265.03;5075984;28;20446;-90
2022/03/01 07:17:23;;;;;;;5.57;2.80;;;;;;;17.39;47.38;100252.69;5076392;28;20105;-90
2022/03/01 07:19:51;;;;;;;5.32;2.80;;;;;;;17.42;47.47;100267.56;5074821;28;20343;-89
2022/03/01 07:22:18;;;;;;;4.97;2.60;;;;;;;17.42;47.63;100257.88;5074644;28;20035;-89
2022/03/01 07:24:44;;;;;;;4.57;2.50;;;;;;;17.42;47.39;100268.44;5074404;28;20032;-88
2022/03/01 07:27:10;;;;;;;6.38;2.80;;;;;;;17.40;47.22;100262.34;5074308;28;20035;-89
2022/03/01 07:29:36;;;;;;;5.13;2.80;;;;;;;17.41;47.26;100266.72;5076206;28;20103;-89
2022/03/01 07:32:04;;;;;;;5.28;2.88;;;;;;;17.41;47.36;100265.81;5075430;28;20028;-89
2022/03/01 07:34:31;;;;;;;4.70;2.80;;;;;;;17.40;47.54;100270.25;5076800;28;20063;-91
2022/03/01 07:36:56;;;;;;;5.13;2.65;;;;;;;17.41;47.63;100279.03;5074701;28;20414;-91
2022/03/01 07:39:22;;;;;;;4.75;2.67;;;;;;;17.40;47.23;100280.81;5078150;28;20056;-88
2022/03/01 07:41:48;;;;;;;5.95;2.70;;;;;;;17.38;47.36;100277.34;5078195;28;20025;-89
2022/03/01 07:44:14;;;;;;;3.65;2.47;;;;;;;17.40;47.36;100286.09;5080273;28;20040;-89
2022/03/01 07:46:39;;;;;;;4.57;2.60;;;;;;;17.40;47.51;100286.09;5078951;28;20020;-90
2022/03/01 07:49:05;;;;;;;4.68;2.80;;;;;;;17.38;47.32;100287.91;5078826;28;20059;-90
2022/03/01 07:51:32;;;;;;;4.45;2.65;;;;;;;17.38;47.26;100287.91;5081677;28;20029;-90
2022/03/01 07:53:58;;;;;;;5.25;3.70;;;;;;;17.39;47.38;100284.34;5086326;28;20040;-91
2022/03/01 07:56:25;;;;;;;4.47;2.40;;;;;;;17.40;47.49;100280.81;5084231;28;20028;-91
2022/03/01 07:58:51;;;;;;;4.50;2.80;;;;;;;17.40;47.38;100285.22;5092269;28;20027;-92
2022/03/01 08:01:17;;;;;;;5.22;3.10;;;;;;;17.39;47.27;100284.34;5091648;28;20035;-91
2022/03/01 08:03:43;;;;;;;6.07;3.30;;;;;;;17.37;47.17;100286.19;5091264;28;20024;-91
2022/03/01 08:06:08;;;;;;;4.45;2.47;;;;;;;17.37;47.47;100291.44;5087998;28;20123;-91
2022/03/01 08:08:35;;;;;;;5.75;3.03;;;;;;;17.39;47.31;100291.41;5086712;28;20466;-92
2022/03/01 08:11:01;;;;;;;4.20;2.60;;;;;;;17.36;47.25;100284.47;5093719;28;20048;-92
2022/03/01 08:13:26;;;;;;;4.90;2.72;;;;;;;17.39;47.32;100284.34;5091114;28;20442;-91
2022/03/01 08:15:52;;;;;;;4.50;2.70;;;;;;;17.41;47.46;100282.53;5091509;28;20025;-92
2022/03/01 08:18:18;;;;;;;5.00;3.00;;;;;;;17.38;47.43;100287.06;5092938;28;20028;-91
2022/03/01 08:20:43;;;;;;;5.10;2.97;;;;;;;17.38;47.19;100298.44;5094475;28;20096;-92
2022/03/01 08:23:10;;;;;;;6.18;3.05;;;;;;;17.38;47.39;100293.16;5092355;28;20028;-91
2022/03/01 08:25:35;;;;;;;5.80;3.28;;;;;;;17.40;47.35;100296.66;5088027;28;20067;-93
2022/03/01 08:28:02;;;;;;;4.90;2.90;;;;;;;17.39;47.17;100294.91;5092145;28;20028;-92
2022/03/01 08:30:29;;;;;;;5.80;3.22;;;;;;;17.40;47.20;100301.03;5090640;28;20051;-92
2022/03/01 08:32:55;;;;;;;4.82;3.42;;;;;;;17.42;47.26;100308.00;5087952;28;20054;-91
2022/03/01 08:35:22;;;;;;;4.88;3.28;;;;;;;17.40;47.20;100307.19;5085309;28;20025;-91
2022/03/01 08:37:48;;;;;;;7.88;3.67;;;;;;;17.41;47.36;100298.38;5083558;28;20035;-90
2022/03/01 08:40:14;;;;;;;5.45;3.47;;;;;;;17.41;47.22;100306.28;5084971;28;20123;-92
2022/03/01 08:42:41;;;;;;;5.93;3.70;;;;;;;17.42;47.27;100310.63;5087609;28;20043;-91
2022/03/01 08:45:08;;;;;;;6.07;3.70;;;;;;;17.44;46.99;100306.16;5084572;28;20527;-90
2022/03/01 08:47:33;;;;;;;7.72;3.50;;;;;;;17.44;47.22;100303.53;5088332;28;20050;-92
2022/03/01 08:50:00;;;;;;;6.05;3.50;;;;;;;17.45;47.04;100305.25;5092064;28;20032;-91
2022/03/01 08:52:26;;;;;;;5.60;3.28;;;;;;;17.43;46.83;100312.34;5087438;28;20039;-91
2022/03/01 08:54:52;;;;;;;6.32;4.20;;;;;;;17.43;47.39;100307.09;5120636;28;20027;-91
2022/03/01 08:57:18;;;;;;;6.93;3.35;;;;;;;17.46;47.23;100306.13;5126537;28;20095;-90
2022/03/01 08:59:43;;;;;;;7.00;3.70;;;;;;;17.48;47.03;100304.28;5123299;28;20038;-90
2022/03/01 09:02:09;;;;;;;5.63;3.78;;;;;;;17.49;46.94;100311.31;5118902;28;20034;-89
2022/03/01 09:04:35;;;;;;;5.88;4.10;;;;;;;17.49;47.11;100305.16;5121757;28;20024;-90
2022/03/01 09:07:03;;;;;;;4.65;3.15;;;;;;;17.52;46.81;100305.03;5123553;28;20107;-91
2022/03/01 09:09:30;;;;;;;6.78;3.95;;;;;;;17.49;46.84;100299.88;5128576;28;20512;-91
2022/03/01 09:11:56;;;;;;;6.10;3.58;;;;;;;17.50;46.99;100294.56;5122790;28;20059;-90
2022/03/01 09:14:21;;;;;;;7.10;3.72;;;;;;;17.50;46.86;100306.88;5125691;28;20023;-91
2022/03/01 09:16:47;;;;;;;6.40;3.17;;;;;;;17.50;47.04;100304.25;5126233;28;20114;-91
2022/03/01 09:19:14;;;;;;;5.68;3.33;;;;;;;17.48;47.12;100293.72;5126085;28;20035;-92
2022/03/01 09:21:40;;;;;;;5.70;3.50;;;;;;;17.52;47.22;100305.03;5126946;28;20024;-91
2022/03/01 09:24:06;;;;;;;5.20;3.30;;;;;;;17.52;47.19;100300.63;5123742;28;20034;-91
2022/03/01 09:26:31;;;;;;;7.13;3.67;;;;;;;17.53;47.30;100305.00;5125070;28;20024;-90
2022/03/01 09:28:57;;;;;;;5.13;3.05;;;;;;;17.53;47.30;100305.00;5125513;28;20027;-91
2022/03/01 09:31:22;;;;;;;6.10;3.10;;;;;;;17.53;47.19;100298.88;5124742;28;20024;-90
2022/03/01 09:33:48;;;;;;;5.65;3.13;;;;;;;17.56;47.35;100301.41;5122954;28;20130;-90
2022/03/01 09:36:14;;;;;;;5.65;3.25;;;;;;;17.57;47.16;100300.47;5120501;28;20023;-90
2022/03/01 09:38:42;;;;;;;5.80;3.90;;;;;;;17.58;47.19;100300.44;5120957;28;20027;-90
2022/03/01 09:41:10;;;;;;;6.65;3.60;;;;;;;17.57;47.62;100295.19;5123991;28;20039;-89
2022/03/01 09:43:37;;;;;;;6.68;3.97;;;;;;;17.59;47.37;100306.59;5123476;28;20020;-91
2022/03/01 09:46:03;;;;;;;6.00;3.70;;;;;;;17.59;47.46;100303.94;5122389;28;20093;-90
2022/03/01 09:48:29;;;;;;;6.38;3.83;;;;;;;17.60;47.42;100308.31;5122521;28;20452;-91
2022/03/01 09:50:56;;;;;;;5.38;3.03;;;;;;;17.60;47.28;100307.44;5124017;28;20038;-90
2022/03/01 09:53:22;;;;;;;6.68;3.58;;;;;;;17.60;47.53;100302.16;5125740;28;20099;-91
2022/03/01 09:55:47;;;;;;;6.03;3.72;;;;;;;17.62;47.24;100298.56;5130581;28;20036;-91
2022/03/01 09:58:13;;;;;;;5.63;3.75;;;;;;;17.61;47.27;100294.19;5124761;28;20024;-92
2022/03/01 10:00:39;;;;;;;6.50;3.80;;;;;;;17.58;47.36;100295.16;5132642;28;20066;-92
2022/03/01 10:03:07;;;;;;;5.13;3.55;;;;;;;17.62;47.30;100295.91;5125275;28;20027;-90
2022/03/01 10:05:36;;;;;;;7.28;4.03;;;;;;;17.63;47.10;100287.06;5124029;28;20112;-90
2022/03/01 10:08:14;;;;;;;6.80;3.80;;;;;;;17.62;47.44;100290.63;5122129;28;20067;-91
2022/03/01 10:10:44;;;;;;;6.45;3.80;;;;;;;17.64;47.37;100290.59;5144591;27;20051;-90
2022/03/01 10:13:13;;;;;;;7.53;3.53;;;;;;;17.65;47.30;100290.53;5123058;27;20026;-90
2022/03/01 10:15:39;;;;;;;5.68;3.50;;;;;;;17.65;47.49;100290.53;5142404;27;20018;-91
2022/03/01 10:18:15;;;;;;;7.75;4.63;;;;;;;17.66;47.34;100289.63;5124051;27;20029;-91
2022/03/01 10:20:45;;;;;;;6.22;3.92;;;;;;;17.68;47.37;100284.31;5129475;27;20023;-91
2022/03/01 10:23:12;;;;;;;6.78;4.03;;;;;;;17.70;47.43;100287.75;5122527;27;20035;-91
2022/03/01 10:25:42;;;;;;;6.88;3.80;;;;;;;17.70;47.43;100288.63;5123211;27;20023;-90
2022/03/01 10:28:08;;;;;;;9.07;3.85;;;;;;;17.71;47.30;100279.78;5139703;27;20030;-89
2022/03/01 10:30:37;;;;;;;6.68;3.55;;;;;;;17.73;47.21;100281.50;5120990;27;20027;-90
2022/03/01 10:33:09;;;;;;;8.45;3.70;;;;;;;17.75;47.27;100272.63;5122140;27;20488;-92
2022/03/01 10:35:39;;;;;;;5.85;3.78;;;;;;;17.76;47.25;100270.81;5147157;27;20023;-92
2022/03/01 10:38:06;;;;;;;5.30;3.40;;;;;;;17.78;47.31;100274.28;5131569;27;20034;-92
2022/03/01 10:40:33;;;;;;;6.28;3.28;;;;;;;17.77;47.29;100273.41;5129610;27;20110;-92
2022/03/01 10:43:14;;;;;;;5.90;3.70;;;;;;;17.81;47.19;100268.88;5113409;27;20072;-90
2022/03/01 10:45:41;;;;;;;8.90;3.40;;;;;;;17.80;46.96;100272.44;5126907;27;20034;-92
2022/03/01 10:48:09;;;;;;;7.00;3.55;;;;;;;17.81;47.26;100268.88;5127016;27;20039;-93
2022/03/01 10:50:38;;;;;;;6.32;3.67;;;;;;;17.81;47.26;100274.16;5108211;27;20054;-92
2022/03/01 10:53:05;;;;;;;5.63;3.50;;;;;;;17.83;46.92;100267.06;5125820;27;20091;-92
2022/03/01 10:55:34;;;;;;;7.05;3.45;;;;;;;17.83;47.09;100259.16;5129757;27;20023;-92
2022/03/01 10:58:07;;;;;;;6.22;3.60;;;;;;;17.84;46.77;100263.50;5107977;27;20027;-93
2022/03/01 11:00:35;;;;;;;6.80;3.45;;;;;;;17.85;46.76;100259.94;5126387;27;20023;-90
2022/03/01 11:03:03;;;;;;;6.13;3.65;;;;;;;17.85;46.92;100252.91;5108864;28;20031;-89
2022/03/01 11:05:31;;;;;;;7.10;3.55;;;;;;;17.87;47.02;100257.25;5124527;28;20031;-91
2022/03/01 11:08:03;;;;;;;5.82;3.22;;;;;;;17.87;47.00;100258.09;5107258;28;20072;-91
2022/03/01 11:10:32;;;;;;;5.60;3.00;;;;;;;17.88;46.60;100259.84;5128187;28;20057;-91
2022/03/01 11:13:01;;;;;;;5.53;3.05;;;;;;;17.90;46.59;100263.28;5111479;28;20036;-90
2022/03/01 11:15:47;;;;;;;6.35;2.97;;;;;;;17.89;46.63;100256.28;5101676;28;20495;-90
2022/03/01 11:18:27;;;;;;;6.13;2.85;;;;;;;17.90;46.82;100258.00;5103446;28;20016;-90
2022/03/01 11:20:56;;;;;;;5.60;2.92;;;;;;;17.91;47.04;100251.81;5148216;27;20050;-91
2022/03/01 11:23:25;;;;;;;8.05;3.40;;;;;;;17.95;47.15;100245.50;5139674;27;20388;-90
2022/03/01 11:25:52;;;;;;;5.35;3.05;;;;;;;17.97;47.26;100243.66;5120191;27;20325;-91
2022/03/01 11:28:29;;;;;;;6.97;2.88;;;;;;;18.02;46.98;100234.72;5120648;27;20023;-90
2022/03/01 11:30:55;;;;;;;6.53;3.15;;;;;;;18.06;47.10;100225.81;5140481;27;20027;-92
2022/03/01 11:33:35;;;;;;;8.52;3.20;;;;;;;18.10;47.11;100232.69;5127472;28;20077;-88
2022/03/01 11:36:03;;;;;;;9.07;3.13;;;;;;;18.06;47.97;100226.66;5129076;28;20471;-90
2022/03/01 11:38:32;;;;;;;10.70;3.50;;;;;;;18.13;47.52;100222.03;5128903;28;20177;-91
2022/03/01 11:41:20;;;;;;;8.10;3.25;;;;;;;18.16;47.03;100231.63;5107412;28;20031;-90
2022/03/01 11:43:59;;;;;;;5.95;2.60;;;;;;;18.17;46.97;100217.50;5101513;28;20027;-90
2022/03/01 11:46:25;;;;;;;6.13;2.65;;;;;;;18.18;47.33;100225.38;5098809;28;20100;-87
2022/03/01 11:48:56;;;;;;;7.05;2.80;;;;;;;18.18;47.13;100213.91;5098086;28;20027;-90
2022/03/01 11:51:32;;;;;;;6.63;2.63;;;;;;;18.18;47.10;100204.22;5098277;28;20035;-89
2022/03/01 12:15:20;;;;;;;5.35;2.83;;;;;;;18.20;46.78;100169.81;5116373;28;20055;-89
2022/03/01 12:17:48;;;;;;;4.68;2.42;;;;;;;18.19;46.74;100163.69;5095458;28;20044;-89
2022/03/01 12:20:19;;;;;;;4.80;2.15;;;;;;;18.20;46.56;100162.75;5096400;28;20047;-89
2022/03/01 12:23:31;;;;;;;5.32;2.15;;;;;;;18.20;46.36;100159.25;5096449;28;20024;-91
2022/03/01 12:26:01;;;;;;;5.72;2.38;;;;;;;18.21;46.58;100161.84;5102238;28;20016;-90
2022/03/01 12:28:33;;;;;;;6.93;2.10;;;;;;;18.20;46.21;100154.84;5100602;28;20111;-90
2022/03/01 12:31:09;;;;;;;6.55;3.05;;;;;;;18.20;46.08;100148.69;5098968;28;20028;-89
2022/03/01 12:33:35;;;;;;;4.15;2.10;;;;;;;18.20;45.85;100146.03;5099692;28;20038;-89
2022/03/01 12:36:03;;;;;;;6.13;2.30;;;;;;;18.21;46.39;100137.22;5098988;28;20425;-90
2022/03/01 12:38:31;;;;;;;4.90;2.20;;;;;;;18.21;46.01;100145.97;5099282;28;20055;-89
2022/03/01 12:41:08;;;;;;;4.53;2.20;;;;;;;18.20;46.13;100138.97;5100028;28;20019;-90
2022/03/01 12:43:33;;;;;;;6.10;2.33;;;;;;;18.22;45.97;100142.41;5099533;28;20012;-89
2022/03/01 12:45:59;;;;;;;6.30;2.15;;;;;;;18.21;45.56;100124.84;5098938;28;20024;-90
2022/03/01 12:48:25;;;;;;;5.15;2.22;;;;;;;18.21;45.55;100122.22;5102071;28;20114;-88
2022/03/01 12:50:52;;;;;;;4.28;1.92;;;;;;;18.21;45.14;100119.56;5102608;28;20023;-89
2022/03/01 12:53:19;;;;;;;4.38;2.08;;;;;;;18.22;45.74;100121.28;5101251;28;20039;-88
2022/03/01 12:55:54;;;;;;;6.80;2.03;;;;;;;18.22;45.00;100116.00;5100667;28;20020;-91
2022/03/01 12:58:23;;;;;;;7.75;2.30;;;;;;;18.22;45.22;100110.72;5099276;28;20156;-89
2022/03/01 13:00:50;;;;;;;4.88;1.95;;;;;;;18.22;44.83;100110.72;5099268;28;20015;-89
2022/03/01 13:03:30;;;;;;;6.07;2.33;;;;;;;18.23;45.04;100101.03;5107995;28;20011;-92
2022/03/01 13:06:14;;;;;;;6.97;2.60;;;;;;;18.22;45.56;100079.03;5087844;28;20029;-92
2022/03/01 13:08:42;;;;;;;5.95;2.42;;;;;;;18.23;44.87;100091.34;5109880;28;20036;-89
2022/03/01 13:11:15;;;;;;;5.28;2.20;;;;;;;18.21;44.23;100093.16;5099099;28;20036;-91
2022/03/01 13:13:44;;;;;;;5.80;2.53;;;;;;;18.23;43.64;100095.75;5083087;28;20051;-90
2022/03/01 13:16:10;;;;;;;6.57;2.33;;;;;;;18.23;44.65;100091.34;5099033;28;20355;-89
2022/03/01 13:18:36;;;;;;;4.68;2.00;;;;;;;18.23;44.84;100085.19;5097387;28;20032;-89
2022/03/01 13:21:02;;;;;;;4.72;2.15;;;;;;;18.25;44.93;100083.31;5099147;28;20035;-90
2022/03/01 13:23:30;;;;;;;3.90;1.70;;;;;;;18.26;45.20;100077.16;5101359;28;20507;-89
2022/03/01 13:25:57;;;;;;;5.30;2.38;;;;;;;18.23;44.18;100080.75;5103296;28;20028;-91
2022/03/01 13:28:34;;;;;;;5.68;2.38;;;;;;;18.25;45.40;100078.03;5107975;28;20114;-90
2022/03/01 13:31:00;;;;;;;5.57;2.10;;;;;;;18.25;45.20;100080.69;5101107;28;20035;-92
2022/03/01 13:33:30;;;;;;;4.68;1.85;;;;;;;18.26;44.99;100074.50;5101895;28;20043;-90
2022/03/01 13:35:57;;;;;;;5.20;2.00;;;;;;;18.25;44.76;100076.28;5101172;28;20042;-89
2022/03/01 13:38:23;;;;;;;5.72;2.20;;;;;;;18.27;45.11;100065.66;5100321;28;20472;-91
2022/03/01 13:40:49;;;;;;;5.13;2.33;;;;;;;18.25;45.12;100073.63;5100794;28;20044;-91
2022/03/01 13:43:23;;;;;;;5.10;2.42;;;;;;;18.26;45.80;100063.94;5102003;28;20035;-91
2022/03/01 13:45:56;;;;;;;6.53;2.20;;;;;;;18.27;45.51;100065.66;5099436;28;20034;-90
2022/03/01 13:48:21;;;;;;;5.55;2.03;;;;;;;18.27;45.51;100054.22;5105648;28;20028;-90
2022/03/01 13:50:48;;;;;;;7.07;2.22;;;;;;;18.27;45.68;100059.50;5096794;28;20020;-89
2022/03/01 13:53:23;;;;;;;5.70;2.45;;;;;;;18.29;45.73;100047.06;5096635;28;20020;-89
2022/03/01 13:55:52;;;;;;;7.50;2.30;;;;;;;18.28;45.64;100040.06;5096815;28;20065;-90
2022/03/01 13:58:22;;;;;;;6.50;2.17;;;;;;;18.28;46.08;100045.34;5097122;28;20055;-91
2022/03/01 14:00:51;;;;;;;6.10;1.95;;;;;;;18.28;45.85;100035.66;5098387;28;20028;-91
2022/03/01 14:04:01;;;;;;;4.63;2.42;;;;;;;18.28;46.11;100034.78;5110445;28;20019;-89
2022/03/01 14:06:26;;;;;;;6.05;2.15;;;;;;;18.29;45.85;100036.50;5117927;28;20342;-86
2022/03/01 14:08:55;;;;;;;7.05;2.63;;;;;;;18.30;45.86;100032.97;5120038;28;20076;-88
2022/03/01 14:11:21;;;;;;;6.72;2.42;;;;;;;18.30;45.86;100017.13;5118504;28;20145;-89
2022/03/01 14:13:49;;;;;;;6.47;2.25;;;;;;;18.29;46.08;100020.66;5117416;28;20035;-89
2022/03/01 14:16:26;;;;;;;6.85;2.25;;;;;;;18.30;45.95;100017.13;5116578;28;20039;-91
2022/03/01 14:19:03;;;;;;;6.47;2.25;;;;;;;18.30;46.17;100017.97;5117451;28;20118;-88